0TX1 – Local Weather Observations

Pecan Plantation

This weather station is operated by a private user located just north of the field. Data is gathered via OpenWeatherMap.org.

Last updated:
2021-09-18 20:32:00(3:32 pm)

Temperature: 93.3 °F

Sunrise / Sunset: 7:15 am / 7:33 pm

Civil Dawn / Dusk: 6:50 am / 7:58 pm

Nearby METARs

KGDJ 182035Z AUTO 33005KT 10SM CLR 35/15 A3000 RMK AO2 T03500147

KCPT 182035Z AUTO 02007G13KT 340V040 10SM CLR 34/15 A2999 RMK A01

KFWS 181946Z 04008KT 10SM SCT070 SCT080 BKN095 35/16 A3002

KSEP 182035Z AUTO 01007KT 320V070 10SM CLR 34/16 A3005 RMK AO2 T03350161